createdAt,value
2017-11-07T00:01:45.001Z,99670
2017-11-07T00:04:13.073Z,99669
2017-11-07T00:06:41.157Z,99677
2017-11-07T00:09:09.241Z,99667
2017-11-07T00:11:37.340Z,99668
2017-11-07T00:14:05.414Z,99665
2017-11-07T00:16:33.488Z,99676
2017-11-07T00:19:01.604Z,99681
2017-11-07T00:21:29.680Z,99672
2017-11-07T00:23:57.764Z,99674
2017-11-07T00:26:25.836Z,99673
2017-11-07T00:28:53.919Z,99668
2017-11-07T00:31:21.996Z,99666
2017-11-07T00:33:50.091Z,99661
2017-11-07T00:36:18.172Z,99654
2017-11-07T00:38:46.262Z,99650
2017-11-07T00:41:14.555Z,99652
2017-11-07T00:43:42.636Z,99647
2017-11-07T00:46:10.740Z,99651
2017-11-07T00:48:39.582Z,99651
2017-11-07T00:51:08.428Z,99647
2017-11-07T00:53:37.281Z,99641
2017-11-07T00:56:05.392Z,99645
2017-11-07T00:58:34.255Z,99650
2017-11-07T01:01:02.344Z,99652
2017-11-07T01:03:30.420Z,99654
2017-11-07T01:05:59.264Z,99650
2017-11-07T01:08:27.379Z,99644
2017-11-07T01:10:55.448Z,99647
2017-11-07T01:13:23.532Z,99632
2017-11-07T01:15:52.389Z,99629
2017-11-07T01:18:20.479Z,99629
2017-11-07T01:20:48.552Z,99638
2017-11-07T01:23:16.652Z,99631
2017-11-07T01:25:45.498Z,99626
2017-11-07T01:28:13.591Z,99620
2017-11-07T01:30:41.671Z,99629
2017-11-07T01:33:09.747Z,99620
2017-11-07T01:35:38.608Z,99625
2017-11-07T01:38:06.686Z,99614
2017-11-07T01:40:34.772Z,99616
2017-11-07T01:43:02.852Z,99601
2017-11-07T01:45:30.940Z,99606
2017-11-07T01:47:59.780Z,99597
2017-11-07T01:50:27.884Z,99605
2017-11-07T01:52:55.965Z,99604
2017-11-07T01:55:24.037Z,99601
2017-11-07T01:57:52.119Z,99600
2017-11-07T02:00:20.200Z,99597
2017-11-07T02:02:49.040Z,99591
2017-11-07T02:05:17.458Z,99603
2017-11-07T02:07:46.305Z,99594
2017-11-07T02:10:14.389Z,99593
2017-11-07T02:12:42.487Z,99593
2017-11-07T02:15:10.563Z,99595
2017-11-07T02:17:39.442Z,99602
2017-11-07T02:20:07.525Z,99601
2017-11-07T02:22:35.596Z,99585
2017-11-07T02:25:03.672Z,99585
2017-11-07T02:27:32.510Z,99582
2017-11-07T02:30:01.361Z,99574
2017-11-07T02:32:30.212Z,99578
2017-11-07T02:34:58.292Z,99576
2017-11-07T02:37:26.403Z,99573
2017-11-07T02:39:55.247Z,99572
2017-11-07T02:42:23.325Z,99573
2017-11-07T02:44:51.413Z,99576
2017-11-07T02:47:19.555Z,99576
2017-11-07T02:49:48.430Z,99574
2017-11-07T02:52:17.267Z,99568
2017-11-07T02:54:45.343Z,99565
2017-11-07T02:57:13.431Z,99562
2017-11-07T02:59:42.352Z,99550
2017-11-07T03:02:10.440Z,99553
2017-11-07T03:04:39.499Z,99549
2017-11-07T03:07:08.364Z,99545
2017-11-07T03:09:36.437Z,99538
2017-11-07T03:12:04.528Z,99541
2017-11-07T03:14:33.372Z,99547
2017-11-07T03:17:01.462Z,99548
2017-11-07T03:19:29.534Z,99547
2017-11-07T03:21:57.642Z,99541
2017-11-07T03:24:26.475Z,99536
2017-11-07T03:26:54.552Z,99546
2017-11-07T03:29:22.635Z,99547
2017-11-07T03:31:50.716Z,99543
2017-11-07T03:34:18.795Z,99537
2017-11-07T03:36:46.876Z,99532
2017-11-07T03:39:14.955Z,99528
2017-11-07T03:41:43.024Z,99528
2017-11-07T03:44:11.109Z,99522
2017-11-07T03:46:39.956Z,99524
2017-11-07T03:49:08.040Z,99532
2017-11-07T03:51:36.116Z,99524
2017-11-07T03:54:04.195Z,99522
2017-11-07T03:56:32.280Z,99517
2017-11-07T03:59:00.405Z,99513
2017-11-07T04:01:28.476Z,99506
2017-11-07T04:03:57.316Z,99506
2017-11-07T04:06:25.400Z,99508
2017-11-07T04:08:54.253Z,99514
2017-11-07T04:11:22.341Z,99511
2017-11-07T04:13:50.452Z,99501
2017-11-07T04:16:18.600Z,99510
2017-11-07T04:18:46.681Z,99511
2017-11-07T04:21:14.765Z,99507
2017-11-07T04:23:43.616Z,99515
2017-11-07T04:26:12.416Z,99512
2017-11-07T04:28:40.492Z,99505
2017-11-07T04:31:08.573Z,99499
2017-11-07T04:33:37.440Z,99510
2017-11-07T04:36:05.516Z,99495
2017-11-07T04:38:33.655Z,99499
2017-11-07T04:41:01.800Z,99496
2017-11-07T04:43:29.968Z,99494
2017-11-07T04:45:58.815Z,99493
2017-11-07T04:48:26.924Z,99505
2017-11-07T04:50:55.774Z,99500
2017-11-07T04:53:23.872Z,99498
2017-11-07T04:55:52.093Z,99502
2017-11-07T04:58:20.163Z,99496
2017-11-07T05:00:48.258Z,99495
2017-11-07T05:03:17.100Z,99501
2017-11-07T05:05:45.176Z,99487
2017-11-07T05:08:13.259Z,99496
2017-11-07T05:10:41.351Z,99494
2017-11-07T05:13:09.423Z,99486
2017-11-07T05:15:37.516Z,99492
2017-11-07T05:18:05.596Z,99491
2017-11-07T05:20:33.712Z,99479
2017-11-07T05:23:02.602Z,99484
2017-11-07T05:25:31.448Z,99481
2017-11-07T05:27:59.544Z,99478
2017-11-07T05:30:27.623Z,99475
2017-11-07T05:32:55.698Z,99470
2017-11-07T05:35:23.780Z,99462
2017-11-07T05:37:51.865Z,99468
2017-11-07T05:40:20.717Z,99469
2017-11-07T05:42:48.804Z,99469
2017-11-07T05:45:16.883Z,99469
2017-11-07T05:47:44.973Z,99457
2017-11-07T05:50:13.820Z,99463
2017-11-07T05:52:41.903Z,99464
2017-11-07T05:55:09.989Z,99460
2017-11-07T05:57:38.067Z,99460
2017-11-07T06:00:06.152Z,99453
2017-11-07T06:02:34.993Z,99456
2017-11-07T06:05:03.082Z,99456
2017-11-07T06:07:31.372Z,99458
2017-11-07T06:09:59.460Z,99460
2017-11-07T06:12:27.527Z,99449
2017-11-07T06:14:55.613Z,99457
2017-11-07T06:17:24.464Z,99450
2017-11-07T06:19:52.553Z,99454
2017-11-07T06:22:20.637Z,99445
2017-11-07T06:24:48.716Z,99452
2017-11-07T06:27:17.589Z,99454
2017-11-07T06:29:45.688Z,99455
2017-11-07T06:32:14.529Z,99453
2017-11-07T06:34:42.607Z,99461
2017-11-07T06:37:10.704Z,99462
2017-11-07T06:39:38.783Z,99467
2017-11-07T06:42:06.864Z,99459
2017-11-07T06:44:34.952Z,99453
2017-11-07T06:47:03.797Z,99462
2017-11-07T06:49:31.900Z,99456
2017-11-07T06:52:00.757Z,99463
2017-11-07T06:54:28.854Z,99458
2017-11-07T06:56:56.990Z,99459
2017-11-07T06:59:25.060Z,99460
2017-11-07T07:01:53.149Z,99453
2017-11-07T07:04:21.237Z,99457
2017-11-07T07:06:50.117Z,99452
2017-11-07T07:09:18.224Z,99451
2017-11-07T07:11:47.077Z,99452
2017-11-07T07:14:15.148Z,99452
2017-11-07T07:16:43.245Z,99448
2017-11-07T07:19:11.310Z,99455
2017-11-07T07:21:39.393Z,99451
2017-11-07T07:24:07.486Z,99448
2017-11-07T07:26:36.315Z,99447
2017-11-07T07:29:05.156Z,99450
2017-11-07T07:31:34.000Z,99456
2017-11-07T07:34:02.082Z,99446
2017-11-07T07:36:30.155Z,99443
2017-11-07T07:38:58.256Z,99430
2017-11-07T07:41:26.319Z,99420
2017-11-07T07:43:54.403Z,99424
2017-11-07T07:46:23.243Z,99435
2017-11-07T07:48:52.083Z,99426
2017-11-07T07:51:20.924Z,99424
2017-11-07T07:53:49.015Z,99417
2017-11-07T07:56:17.112Z,99411
2017-11-07T07:58:45.193Z,99429
2017-11-07T08:01:14.040Z,99420
2017-11-07T08:03:42.124Z,99432
2017-11-07T08:06:10.200Z,99423
2017-11-07T08:08:38.288Z,99422
2017-11-07T08:11:06.376Z,99422
2017-11-07T08:13:35.226Z,99420
2017-11-07T08:16:03.312Z,99429
2017-11-07T08:18:31.396Z,99429
2017-11-07T08:20:59.494Z,99425
2017-11-07T08:23:27.576Z,99423
2017-11-07T08:25:55.670Z,99425
2017-11-07T08:28:24.506Z,99421
2017-11-07T08:30:52.599Z,99410
2017-11-07T08:33:21.456Z,99417
2017-11-07T08:35:49.549Z,99404
2017-11-07T08:38:18.419Z,99407
2017-11-07T08:40:46.562Z,99404
2017-11-07T08:43:15.399Z,99398
2017-11-07T08:45:43.486Z,99410
2017-11-07T08:48:12.337Z,99404
2017-11-07T08:50:40.430Z,99400
2017-11-07T08:53:08.509Z,99404
2017-11-07T08:55:36.603Z,99396
2017-11-07T08:58:05.455Z,99389
2017-11-07T09:00:33.532Z,99382
2017-11-07T09:03:01.621Z,99379
2017-11-07T09:05:29.699Z,99375
2017-11-07T09:07:57.785Z,99378
2017-11-07T09:10:26.636Z,99383
2017-11-07T09:12:54.718Z,99378
2017-11-07T09:15:22.798Z,99368
2017-11-07T09:17:50.884Z,99370
2017-11-07T09:20:19.725Z,99371
2017-11-07T09:22:47.808Z,99365
2017-11-07T09:25:15.908Z,99363
2017-11-07T09:27:44.012Z,99367
2017-11-07T09:30:12.087Z,99365
2017-11-07T09:32:40.168Z,99370
2017-11-07T09:35:08.279Z,99351
2017-11-07T09:37:36.358Z,99352
2017-11-07T09:40:04.456Z,99355
2017-11-07T09:42:32.532Z,99346
2017-11-07T09:45:01.395Z,99356
2017-11-07T09:47:29.482Z,99365
2017-11-07T09:49:57.570Z,99345
2017-11-07T09:52:26.415Z,99351
2017-11-07T09:54:54.542Z,99348
2017-11-07T09:57:22.628Z,99341
2017-11-07T09:59:50.718Z,99329
2017-11-07T10:02:18.799Z,99332
2017-11-07T10:04:47.651Z,99333
2017-11-07T10:07:16.508Z,99326
2017-11-07T10:09:44.600Z,99324
2017-11-07T10:12:12.672Z,99327
2017-11-07T10:14:40.751Z,99317
2017-11-07T10:17:09.591Z,99310
2017-11-07T10:19:37.683Z,99311
2017-11-07T10:22:05.776Z,99297
2017-11-07T10:24:33.841Z,99304
2017-11-07T10:27:01.932Z,99291
2017-11-07T10:29:30.004Z,99289
2017-11-07T10:31:58.092Z,99293
2017-11-07T10:34:26.940Z,99290
2017-11-07T10:36:55.032Z,99295
2017-11-07T10:39:23.116Z,99284
2017-11-07T10:41:51.971Z,99288
2017-11-07T10:44:20.045Z,99274
2017-11-07T10:46:48.135Z,99264
2017-11-07T10:49:16.215Z,99266
2017-11-07T10:51:44.296Z,99262
2017-11-07T10:54:13.168Z,99264
2017-11-07T10:56:41.251Z,99264
2017-11-07T10:59:09.332Z,99253
2017-11-07T11:01:38.189Z,99248
2017-11-07T11:04:06.273Z,99251
2017-11-07T11:06:34.428Z,99248
2017-11-07T11:09:02.516Z,99238
2017-11-07T11:11:30.608Z,99235
2017-11-07T11:13:59.061Z,99230
2017-11-07T11:16:27.141Z,99224
2017-11-07T11:18:55.207Z,99227
2017-11-07T11:21:23.297Z,99225
2017-11-07T11:23:51.381Z,99216
2017-11-07T11:26:19.459Z,99216
2017-11-07T11:28:48.309Z,99213
2017-11-07T11:31:16.408Z,99213
2017-11-07T11:33:44.491Z,99203
2017-11-07T11:36:12.584Z,99201
2017-11-07T11:38:41.441Z,99205
2017-11-07T11:41:09.513Z,99198
2017-11-07T11:43:37.588Z,99185
2017-11-07T11:46:05.679Z,99186
2017-11-07T11:48:34.523Z,99182
2017-11-07T11:51:02.654Z,99177
2017-11-07T11:53:30.732Z,99181
2017-11-07T11:55:59.608Z,99173
2017-11-07T11:58:28.465Z,99176
2017-11-07T12:00:56.552Z,99171
2017-11-07T12:03:24.636Z,99173
2017-11-07T12:05:52.721Z,99173
2017-11-07T12:08:21.572Z,99158
2017-11-07T12:10:49.663Z,99152
2017-11-07T12:13:17.749Z,99150
2017-11-07T12:15:45.832Z,99150
2017-11-07T12:18:14.684Z,99139
2017-11-07T12:20:42.768Z,99139
2017-11-07T12:23:10.844Z,99138
2017-11-07T12:25:38.927Z,99125
2017-11-07T12:28:07.008Z,99126
2017-11-07T12:30:35.865Z,99122
2017-11-07T12:33:03.942Z,99131
2017-11-07T12:35:32.032Z,99123
2017-11-07T12:38:00.116Z,99114
2017-11-07T12:40:28.206Z,99112
2017-11-07T12:42:57.043Z,99121
2017-11-07T12:45:25.136Z,99117
2017-11-07T12:47:53.225Z,99109
2017-11-07T12:50:39.771Z,99109
2017-11-07T12:53:07.857Z,99091
2017-11-07T12:55:35.948Z,99097
2017-11-07T12:58:04.058Z,99090
2017-11-07T13:00:32.996Z,99084
2017-11-07T13:03:01.089Z,99078
2017-11-07T13:05:29.181Z,99082
2017-11-07T13:07:57.264Z,99076
2017-11-07T13:10:25.363Z,99080
2017-11-07T13:12:53.461Z,99075
2017-11-07T13:15:21.548Z,99068
2017-11-07T13:17:49.637Z,99074
2017-11-07T13:20:17.724Z,99073
2017-11-07T13:22:46.594Z,99068
2017-11-07T13:25:14.670Z,99056
2017-11-07T13:27:42.760Z,99055
2017-11-07T13:30:12.489Z,99058
2017-11-07T13:32:41.371Z,99061
2017-11-07T13:35:10.220Z,99054
2017-11-07T13:37:38.816Z,99052
2017-11-07T13:40:06.904Z,99042
2017-11-07T13:42:35.011Z,99052
2017-11-07T13:45:03.104Z,99052
2017-11-07T13:47:31.184Z,99044
2017-11-07T13:49:59.332Z,99038
2017-11-07T13:52:27.422Z,99044
2017-11-07T13:54:55.513Z,99052
2017-11-07T13:57:23.589Z,99051
2017-11-07T13:59:51.823Z,99049
2017-11-07T14:02:19.900Z,99049
2017-11-07T14:04:48.007Z,99044
2017-11-07T14:07:16.123Z,99044
2017-11-07T14:09:44.188Z,99052
2017-11-07T14:12:13.049Z,99052
2017-11-07T14:14:41.119Z,99052
2017-11-07T14:17:09.213Z,99053
2017-11-07T14:19:37.279Z,99042
2017-11-07T14:22:05.375Z,99042
2017-11-07T14:24:35.828Z,99047
2017-11-07T14:27:03.920Z,99037
2017-11-07T14:29:31.999Z,99040
2017-11-07T14:32:00.083Z,99039
2017-11-07T14:34:28.164Z,99038
2017-11-07T14:36:56.358Z,99034
2017-11-07T14:39:24.460Z,99030
2017-11-07T14:41:52.547Z,99033
2017-11-07T14:44:20.648Z,99031
2017-11-07T14:46:48.747Z,99028
2017-11-07T14:49:16.825Z,99020
2017-11-07T14:51:44.904Z,99030
2017-11-07T14:54:13.752Z,99034
2017-11-07T14:56:41.834Z,99034
2017-11-07T14:59:09.924Z,99050
2017-11-07T15:01:38.102Z,99040
2017-11-07T15:04:06.176Z,99029
2017-11-07T15:06:34.281Z,99034
2017-11-07T15:09:02.351Z,99040
2017-11-07T15:11:30.449Z,99040
2017-11-07T15:13:59.289Z,99034
2017-11-07T15:16:27.372Z,99028
2017-11-07T15:18:56.210Z,99034
2017-11-07T15:21:24.300Z,99022
2017-11-07T15:23:52.367Z,99013
2017-11-07T15:26:20.467Z,99030
2017-11-07T15:28:48.543Z,99034
2017-11-07T15:31:16.624Z,99020
2017-11-07T15:33:45.479Z,99032
2017-11-07T15:36:13.555Z,99025
2017-11-07T15:38:41.652Z,99028
2017-11-07T15:41:09.712Z,99023
2017-11-07T15:43:37.801Z,99028
2017-11-07T15:46:05.920Z,99029
2017-11-07T15:48:34.763Z,99025
2017-11-07T15:51:02.845Z,99019
2017-11-07T15:53:31.705Z,99027
2017-11-07T15:55:59.789Z,99038
2017-11-07T15:58:27.868Z,99027
2017-11-07T16:00:55.945Z,99032
2017-11-07T16:03:24.024Z,99027
2017-11-07T16:05:52.864Z,99031
2017-11-07T16:08:20.949Z,99024
2017-11-07T16:10:49.019Z,99024
2017-11-07T16:13:17.113Z,99021
2017-11-07T16:15:45.198Z,99017
2017-11-07T16:18:13.284Z,99023
2017-11-07T16:20:42.133Z,99022
2017-11-07T16:23:10.219Z,99026
2017-11-07T16:25:38.290Z,99028
2017-11-07T16:28:06.588Z,99021
2017-11-07T16:30:34.662Z,99021
2017-11-07T16:33:03.515Z,99029
2017-11-07T16:35:32.549Z,99027
2017-11-07T16:38:01.407Z,99027
2017-11-07T16:40:29.474Z,99030
2017-11-07T16:42:57.563Z,99026
2017-11-07T16:45:25.648Z,99023
2017-11-07T16:47:53.728Z,99023
2017-11-07T16:50:22.566Z,99027
2017-11-07T16:52:50.673Z,99034
2017-11-07T16:55:18.748Z,99029
2017-11-07T16:57:46.832Z,99030
2017-11-07T17:00:15.675Z,99024
2017-11-07T17:02:44.516Z,99015
2017-11-07T17:05:13.365Z,99026
2017-11-07T17:07:41.447Z,99014
2017-11-07T17:10:09.519Z,99009
2017-11-07T17:12:37.617Z,98997
2017-11-07T17:15:05.696Z,98992
2017-11-07T17:17:34.544Z,98987
2017-11-07T17:20:02.629Z,98995
2017-11-07T17:22:30.720Z,98990
2017-11-07T17:24:58.787Z,98991
2017-11-07T17:27:26.876Z,98986
2017-11-07T17:29:55.716Z,98991
2017-11-07T17:32:23.796Z,98996
2017-11-07T17:34:51.886Z,99003
2017-11-07T17:37:19.971Z,98995
2017-11-07T17:39:48.055Z,98991
2017-11-07T17:42:16.132Z,98998
2017-11-07T17:44:44.980Z,98990
2017-11-07T17:47:13.059Z,98997
2017-11-07T17:49:41.141Z,98987
2017-11-07T17:52:09.223Z,98987
2017-11-07T17:54:37.302Z,98983
2017-11-07T17:57:05.385Z,98983
2017-11-07T17:59:33.451Z,98981
2017-11-07T18:02:01.536Z,98981
2017-11-07T18:04:30.376Z,98982
2017-11-07T18:06:58.460Z,98980
2017-11-07T18:09:26.531Z,98972
2017-11-07T18:11:54.614Z,98973
2017-11-07T18:14:22.701Z,98968
2017-11-07T18:16:50.857Z,98966
2017-11-07T18:19:18.951Z,98970
2017-11-07T18:21:47.024Z,98980
2017-11-07T18:24:15.103Z,98984
2017-11-07T18:26:43.176Z,98981
2017-11-07T18:29:11.248Z,98986
2017-11-07T18:31:40.087Z,98982
2017-11-07T18:34:08.938Z,98979
2017-11-07T18:36:37.783Z,98974
2017-11-07T18:39:05.864Z,98978
2017-11-07T18:41:33.935Z,98983
2017-11-07T18:44:02.020Z,98979
2017-11-07T18:46:30.100Z,98983
2017-11-07T18:48:58.184Z,98971
2017-11-07T18:51:27.031Z,98973
2017-11-07T18:53:55.112Z,98970
2017-11-07T18:56:23.190Z,98974
2017-11-07T18:58:51.262Z,98968
2017-11-07T19:01:19.334Z,98962
2017-11-07T19:03:47.416Z,98967
2017-11-07T19:06:15.489Z,98974
2017-11-07T19:08:43.568Z,98974
2017-11-07T19:11:11.637Z,98972
2017-11-07T19:13:39.721Z,98966
2017-11-07T19:16:07.792Z,98968
2017-11-07T19:18:35.869Z,98974
2017-11-07T19:21:03.939Z,98972
2017-11-07T19:23:32.015Z,98964
2017-11-07T19:26:00.887Z,98960
2017-11-07T19:28:28.978Z,98965
2017-11-07T19:30:57.043Z,98950
2017-11-07T19:33:25.119Z,98952
2017-11-07T19:35:53.194Z,98958
2017-11-07T19:38:21.302Z,98951
2017-11-07T19:40:50.107Z,98950
2017-11-07T19:43:18.198Z,98950
2017-11-07T19:45:47.196Z,98954
2017-11-07T19:48:15.344Z,98959
2017-11-07T19:50:44.172Z,98952
2017-11-07T19:53:12.259Z,98948
2017-11-07T19:55:40.332Z,98946
2017-11-07T19:58:08.412Z,98945
2017-11-07T20:00:37.260Z,98941
2017-11-07T20:03:05.349Z,98941
2017-11-07T20:05:33.428Z,98948
2017-11-07T20:08:01.512Z,98954
2017-11-07T20:10:29.584Z,98951
2017-11-07T20:12:57.665Z,98964
2017-11-07T20:15:26.508Z,98957
2017-11-07T20:17:54.600Z,98956
2017-11-07T20:20:22.662Z,98956
2017-11-07T20:22:50.756Z,98952
2017-11-07T20:25:18.828Z,98945
2017-11-07T20:27:46.921Z,98959
2017-11-07T20:30:15.771Z,98956
2017-11-07T20:32:43.868Z,98940
2017-11-07T20:35:11.951Z,98936
2017-11-07T20:37:40.809Z,98946
2017-11-07T20:40:08.895Z,98940
2017-11-07T20:42:36.972Z,98941
2017-11-07T20:45:05.057Z,98940
2017-11-07T20:47:33.901Z,98946
2017-11-07T20:50:01.995Z,98943
2017-11-07T20:52:30.399Z,98942
2017-11-07T20:54:58.481Z,98944
2017-11-07T20:57:27.332Z,98944
2017-11-07T20:59:55.423Z,98933
2017-11-07T21:02:23.499Z,98929
2017-11-07T21:04:51.605Z,98933
2017-11-07T21:07:20.445Z,98932
2017-11-07T21:09:48.535Z,98918
2017-11-07T21:12:16.616Z,98935
2017-11-07T21:14:44.686Z,98935
2017-11-07T21:17:13.534Z,98940
2017-11-07T21:19:42.387Z,98935
2017-11-07T21:22:11.231Z,98941
2017-11-07T21:24:39.323Z,98940
2017-11-07T21:29:41.996Z,98931
2017-11-07T21:32:10.175Z,98936
2017-11-07T21:34:39.098Z,98934
2017-11-07T21:37:07.967Z,98932
2017-11-07T21:39:36.064Z,98930
2017-11-07T21:42:17.214Z,98927
2017-11-07T21:44:45.321Z,98919
2017-11-07T21:47:14.172Z,98921
2017-11-07T21:49:42.279Z,98912
2017-11-07T21:52:10.368Z,98912
2017-11-07T21:54:39.249Z,98898
2017-11-07T21:57:07.321Z,98887
2017-11-07T21:59:36.175Z,98888
2017-11-07T22:02:04.260Z,98886
2017-11-07T22:04:32.362Z,98888
2017-11-07T22:07:01.222Z,98893
2017-11-07T22:09:29.309Z,98892
2017-11-07T22:11:57.389Z,98891
2017-11-07T22:14:25.481Z,98890
2017-11-07T22:16:54.331Z,98883
2017-11-07T22:19:22.416Z,98878
2017-11-07T22:21:50.509Z,98881
2017-11-07T22:24:19.395Z,98884
2017-11-07T22:26:51.205Z,98875
2017-11-07T22:29:19.296Z,98866
2017-11-07T22:31:47.384Z,98863
2017-11-07T22:34:15.469Z,98862
2017-11-07T22:36:43.567Z,98858
2017-11-07T22:39:11.657Z,98857
2017-11-07T22:41:39.965Z,98851
2017-11-07T22:44:08.037Z,98864
2017-11-07T22:46:36.129Z,98864
2017-11-07T22:49:04.216Z,98871
2017-11-07T22:51:33.079Z,98868
2017-11-07T22:54:01.169Z,98872
2017-11-07T22:56:29.257Z,98866
2017-11-07T22:58:58.123Z,98859
2017-11-07T23:01:26.222Z,98860
2017-11-07T23:03:55.072Z,98863
2017-11-07T23:06:23.160Z,98875
2017-11-07T23:08:51.280Z,98878
2017-11-07T23:11:19.397Z,98865
2017-11-07T23:13:47.488Z,98872
2017-11-07T23:16:15.555Z,98884
2017-11-07T23:18:43.654Z,98889
2017-11-07T23:21:12.520Z,98891
2017-11-07T23:23:40.624Z,98881
2017-11-07T23:26:09.597Z,98878
2017-11-07T23:28:37.685Z,98877
2017-11-07T23:31:06.538Z,98880
2017-11-07T23:33:34.624Z,98884
2017-11-07T23:36:02.713Z,98878
2017-11-07T23:38:30.781Z,98874
2017-11-07T23:40:59.639Z,98862
2017-11-07T23:43:27.735Z,98864
2017-11-07T23:45:55.820Z,98855
2017-11-07T23:48:23.893Z,98838
2017-11-07T23:50:52.783Z,98840
2017-11-07T23:53:20.861Z,98834
2017-11-07T23:55:49.702Z,98825
2017-11-07T23:58:17.804Z,98819
